Time;durP1;ratioP1;P1;durP2;ratioP2;P2;SDS_P1;SDS_P2;PMS_P1;PMS_P2;Temp;Humidity;BMP_temperature;BMP_pressure;BME280_temperature;BME280_humidity;BME280_pressure;Samples;Min_cycle;Max_cycle;Signal;HPM_P1;HPM_P2
2023/03/09 00:02:25;;;;;;;10.60;6.37;;;;;;;9.02;66.50;94245.75;5035228;28;20456;-73
2023/03/09 00:04:52;;;;;;;9.30;6.20;;;;;;;8.93;66.68;94246.53;5035418;28;20445;-73
2023/03/09 00:07:18;;;;;;;7.77;6.10;;;;;;;8.96;66.80;94238.41;5035315;28;20463;-73
2023/03/09 00:09:45;;;;;;;6.60;4.57;;;;;;;9.05;66.41;94247.25;5035488;28;20918;-74
2023/03/09 00:12:12;;;;;;;9.50;5.40;;;;;;;9.08;66.65;94239.97;5035049;28;20452;-73
2023/03/09 00:14:40;;;;;;;7.37;5.40;;;;;;;9.12;66.17;94249.19;5035304;28;20452;-73
2023/03/09 00:17:07;;;;;;;7.47;5.37;;;;;;;9.14;66.12;94244.66;5035078;28;20812;-74
2023/03/09 00:19:35;;;;;;;7.13;4.50;;;;;;;8.94;66.60;94235.13;5000281;28;20456;-72
2023/03/09 00:22:02;;;;;;;9.23;6.30;;;;;;;8.79;67.22;94226.03;5035261;28;20444;-73
2023/03/09 00:24:29;;;;;;;17.63;10.63;;;;;;;8.39;68.58;94237.38;5035045;28;20944;-71
2023/03/09 00:26:57;;;;;;;13.73;7.40;;;;;;;8.62;68.36;94214.41;5035124;28;20499;-74
2023/03/09 00:29:26;;;;;;;11.60;7.37;;;;;;;8.74;68.36;94220.38;5034976;28;20824;-73
2023/03/09 00:31:55;;;;;;;11.90;6.77;;;;;;;8.80;67.97;94236.34;5034888;28;20448;-74
2023/03/09 00:34:22;;;;;;;10.30;6.23;;;;;;;8.79;67.51;94224.22;5034777;28;20475;-73
2023/03/09 00:36:49;;;;;;;11.77;7.13;;;;;;;8.75;67.88;94233.31;5034870;28;20499;-73
2023/03/09 00:39:17;;;;;;;8.70;7.63;;;;;;;8.73;68.08;94235.25;5034688;28;20783;-73
2023/03/09 00:41:45;;;;;;;8.97;6.83;;;;;;;8.78;67.86;94233.06;5034631;28;20440;-73
2023/03/09 00:44:13;;;;;;;9.53;6.73;;;;;;;8.82;67.28;94226.56;5032215;28;20860;-74
2023/03/09 00:46:40;;;;;;;11.10;8.77;;;;;;;8.82;67.64;94210.06;5034240;28;20444;-73
2023/03/09 00:49:12;;;;;;;12.50;7.00;;;;;;;8.74;67.62;94202.06;5033662;28;20492;-72
2023/03/09 00:51:39;;;;;;;9.53;7.40;;;;;;;8.81;67.69;94197.94;5034198;28;20448;-73
2023/03/09 00:54:06;;;;;;;10.57;6.97;;;;;;;8.87;67.63;94198.22;5034381;28;20461;-74
2023/03/09 00:56:33;;;;;;;8.37;6.70;;;;;;;8.91;67.68;94196.97;5034318;28;20456;-73
2023/03/09 00:59:00;;;;;;;7.67;5.80;;;;;;;8.96;67.05;94193.94;5034065;28;20517;-73
2023/03/09 01:01:27;;;;;;;11.70;7.37;;;;;;;8.99;66.51;94194.53;5034275;28;20496;-73
2023/03/09 01:03:54;;;;;;;10.43;6.83;;;;;;;9.00;67.01;94192.72;5034226;28;20929;-73
2023/03/09 01:06:23;;;;;;;5.83;4.60;;;;;;;8.98;67.25;94192.88;5034234;28;20444;-72
2023/03/09 01:08:49;;;;;;;5.97;5.20;;;;;;;9.01;67.02;94191.75;4998875;28;20489;-73
2023/03/09 01:11:17;;;;;;;6.67;4.83;;;;;;;9.05;67.08;94193.13;5033907;28;20454;-74
2023/03/09 01:13:45;;;;;;;6.00;4.50;;;;;;;9.08;66.47;94195.47;5034032;28;20506;-74
2023/03/09 01:16:12;;;;;;;6.83;4.20;;;;;;;9.07;66.41;94190.38;5033828;28;20449;-73
2023/03/09 01:18:39;;;;;;;9.20;4.87;;;;;;;9.03;66.37;94184.59;5033739;28;20505;-74
2023/03/09 01:21:06;;;;;;;7.87;5.73;;;;;;;9.00;67.10;94179.66;5031846;28;20452;-74
2023/03/09 01:23:36;;;;;;;5.13;4.73;;;;;;;8.98;67.04;94179.78;5033917;28;20456;-73
2023/03/09 01:26:04;;;;;;;8.57;4.80;;;;;;;8.98;66.74;94186.81;5033794;28;20453;-74
2023/03/09 01:28:31;;;;;;;7.23;5.27;;;;;;;8.93;66.52;94175.91;5033703;28;20491;-73
2023/03/09 01:30:58;;;;;;;6.33;4.50;;;;;;;8.87;67.47;94169.44;5033954;28;20451;-73
2023/03/09 01:33:25;;;;;;;7.93;5.00;;;;;;;8.42;68.40;94153.44;5033382;28;20457;-73
2023/03/09 01:35:51;;;;;;;7.73;5.43;;;;;;;8.31;69.46;94156.94;5033467;28;20920;-73
2023/03/09 01:38:18;;;;;;;5.50;4.50;;;;;;;8.40;69.32;94165.00;5033342;28;20503;-73
2023/03/09 01:40:48;;;;;;;5.90;4.60;;;;;;;8.41;68.93;94167.47;5033716;28;20448;-73
2023/03/09 01:43:39;;;;;;;6.83;5.13;;;;;;;8.45;69.25;94168.03;5033414;28;20939;-73
2023/03/09 01:46:31;;;;;;;8.40;4.60;;;;;;;8.45;69.45;94160.19;4991946;28;20803;-73
2023/03/09 01:49:06;;;;;;;6.67;4.50;;;;;;;8.37;69.43;94150.38;4991431;28;20485;-73
2023/03/09 01:51:36;;;;;;;5.70;4.33;;;;;;;8.38;69.44;94141.56;4991483;28;20485;-74
2023/03/09 01:54:05;;;;;;;7.43;4.97;;;;;;;8.41;69.20;94151.78;4959708;28;20503;-73
2023/03/09 01:56:36;;;;;;;4.13;3.73;;;;;;;8.40;69.51;94150.13;4991310;28;20457;-72
2023/03/09 01:59:05;;;;;;;7.67;4.93;;;;;;;8.38;69.40;94145.06;4959280;28;20556;-73
2023/03/09 02:01:32;;;;;;;4.30;3.83;;;;;;;8.29;69.48;94137.13;4974324;28;20527;-74
2023/03/09 02:04:06;;;;;;;4.30;3.90;;;;;;;8.19;70.21;94139.75;4991450;28;21130;-73
2023/03/09 02:06:33;;;;;;;7.00;4.90;;;;;;;8.19;70.77;94144.16;4975418;28;20977;-73
2023/03/09 02:09:11;;;;;;;7.50;4.53;;;;;;;8.16;71.09;94147.84;4975103;28;20489;-74
2023/03/09 02:11:40;;;;;;;7.00;5.07;;;;;;;8.16;71.13;94144.41;4991201;28;20453;-73
2023/03/09 02:14:08;;;;;;;5.00;3.93;;;;;;;8.19;71.68;94146.75;4991014;28;21086;-74
2023/03/09 02:16:35;;;;;;;10.57;4.43;;;;;;;8.18;71.57;94142.50;4959194;28;20969;-73
2023/03/09 02:19:02;;;;;;;6.63;4.67;;;;;;;8.16;71.32;94160.09;4991143;28;20947;-73
2023/03/09 02:21:40;;;;;;;4.73;3.90;;;;;;;8.14;71.65;94159.41;4991154;28;20953;-73
2023/03/09 02:24:15;;;;;;;5.93;4.67;;;;;;;8.15;71.63;94159.28;5027041;28;20514;-74
2023/03/09 02:26:47;;;;;;;6.00;4.77;;;;;;;8.11;71.18;94157.06;5032569;28;20451;-73
2023/03/09 02:29:15;;;;;;;6.63;4.77;;;;;;;8.13;71.68;94153.34;5032599;28;20487;-73
2023/03/09 02:31:42;;;;;;;7.53;4.97;;;;;;;8.19;71.37;94160.66;5032462;28;20514;-73
2023/03/09 02:34:10;;;;;;;10.17;6.73;;;;;;;8.25;71.16;94161.91;4997744;28;20480;-73
2023/03/09 02:36:36;;;;;;;28.20;9.60;;;;;;;8.25;71.08;94172.34;5032445;28;20477;-73
2023/03/09 02:39:10;;;;;;;10.63;5.33;;;;;;;8.20;70.94;94161.47;5032292;28;21005;-73
2023/03/09 02:41:38;;;;;;;7.20;5.20;;;;;;;8.12;71.16;94167.38;5032370;28;20456;-73
2023/03/09 02:44:05;;;;;;;7.87;5.30;;;;;;;8.06;71.23;94171.31;5032111;28;20895;-73
2023/03/09 02:46:33;;;;;;;6.37;5.07;;;;;;;8.01;71.68;94176.13;5032337;28;20861;-72
2023/03/09 02:49:00;;;;;;;5.30;4.00;;;;;;;7.97;71.93;94181.75;5031985;28;20532;-73
2023/03/09 02:51:27;;;;;;;8.20;5.17;;;;;;;7.90;72.59;94167.56;5032028;28;20501;-73
2023/03/09 02:53:54;;;;;;;4.30;3.83;;;;;;;7.90;72.60;94184.06;5032218;28;20452;-72
2023/03/09 02:56:20;;;;;;;4.70;3.97;;;;;;;7.87;73.14;94168.66;5032292;28;20444;-73
2023/03/09 02:58:47;;;;;;;5.63;4.47;;;;;;;7.81;72.75;94163.97;5032359;28;20490;-73
2023/03/09 03:01:14;;;;;;;8.60;4.70;;;;;;;7.78;73.00;94161.59;5032003;28;20961;-74
2023/03/09 03:03:42;;;;;;;8.37;5.10;;;;;;;7.87;73.24;94158.22;5031950;28;20483;-74
2023/03/09 03:06:09;;;;;;;7.50;5.17;;;;;;;7.94;72.91;94164.56;5032085;28;20450;-74
2023/03/09 03:08:36;;;;;;;5.80;4.60;;;;;;;7.99;72.98;94175.44;5031668;28;20938;-73
2023/03/09 03:11:03;;;;;;;7.67;4.83;;;;;;;8.02;72.70;94187.41;5031691;28;20468;-73
2023/03/09 03:13:30;;;;;;;8.73;4.63;;;;;;;7.99;72.98;94182.44;5031683;28;20943;-73
2023/03/09 03:16:00;;;;;;;6.33;4.60;;;;;;;8.02;72.61;94177.78;5031931;28;20444;-73
2023/03/09 03:18:27;;;;;;;25.93;4.27;;;;;;;8.10;72.73;94184.97;5031856;28;20498;-73
2023/03/09 03:20:55;;;;;;;4.43;4.03;;;;;;;8.19;72.75;94185.94;5031487;28;20444;-73
2023/03/09 03:23:22;;;;;;;5.20;4.13;;;;;;;8.10;72.22;94178.91;5031652;28;20495;-74
2023/03/09 03:25:49;;;;;;;11.30;5.13;;;;;;;8.08;73.04;94179.03;5031865;28;20501;-73
2023/03/09 03:28:16;;;;;;;4.90;4.20;;;;;;;8.06;73.10;94184.38;5031888;28;20450;-74
2023/03/09 03:30:42;;;;;;;5.27;4.37;;;;;;;7.98;73.56;94180.78;5031688;28;20482;-72
2023/03/09 03:33:09;;;;;;;8.03;4.10;;;;;;;7.94;73.78;94179.41;5031464;28;20578;-74
2023/03/09 03:35:36;;;;;;;5.13;4.20;;;;;;;7.94;73.73;94190.69;5031800;28;20526;-73
2023/03/09 03:38:04;;;;;;;5.47;4.90;;;;;;;7.91;74.48;94203.19;5031733;28;20502;-73
2023/03/09 03:40:31;;;;;;;6.60;4.60;;;;;;;7.88;74.26;94201.66;5032025;28;20847;-73
2023/03/09 03:42:57;;;;;;;9.50;4.87;;;;;;;7.87;74.02;94197.41;5031523;28;20451;-73
2023/03/09 03:45:25;;;;;;;5.40;4.50;;;;;;;7.88;74.33;94185.97;5031498;28;20510;-73
2023/03/09 03:47:52;;;;;;;5.77;4.30;;;;;;;7.99;74.06;94187.66;5031951;28;20553;-72
2023/03/09 03:50:19;;;;;;;17.53;4.60;;;;;;;8.00;73.99;94184.91;5031499;28;20499;-73
2023/03/09 03:52:45;;;;;;;10.93;5.10;;;;;;;8.07;73.35;94193.88;5031645;28;20445;-73
2023/03/09 03:55:13;;;;;;;7.67;4.80;;;;;;;8.14;73.31;94191.59;5031532;28;20510;-74
2023/03/09 03:57:40;;;;;;;6.70;4.63;;;;;;;8.08;73.65;94192.91;5031936;28;20780;-73
2023/03/09 04:00:09;;;;;;;8.73;4.73;;;;;;;8.16;73.33;94205.34;5031342;28;20940;-73
2023/03/09 04:02:36;;;;;;;5.10;4.60;;;;;;;8.18;73.70;94203.44;4997131;28;20860;-73
2023/03/09 04:05:03;;;;;;;7.70;5.10;;;;;;;8.21;73.20;94178.81;5031293;28;20454;-73
2023/03/09 04:07:30;;;;;;;5.63;4.33;;;;;;;8.17;73.56;94175.63;5031473;28;20444;-73
2023/03/09 04:09:57;;;;;;;9.70;5.30;;;;;;;8.18;73.50;94182.50;5031083;28;20493;-73
2023/03/09 04:12:25;;;;;;;6.03;4.47;;;;;;;8.18;73.77;94186.91;5031221;28;20451;-74
2023/03/09 04:14:52;;;;;;;4.67;4.07;;;;;;;8.11;73.51;94184.00;5031348;28;20470;-73
2023/03/09 04:17:19;;;;;;;7.37;4.10;;;;;;;8.09;73.33;94180.69;5031105;28;20793;-74
2023/03/09 04:19:45;;;;;;;4.80;4.07;;;;;;;8.10;73.41;94181.53;5031125;28;20459;-73
2023/03/09 04:22:12;;;;;;;6.87;4.57;;;;;;;8.03;73.62;94183.81;5031184;28;20454;-73
2023/03/09 04:24:39;;;;;;;9.60;5.10;;;;;;;7.98;73.91;94181.63;5034035;28;20934;-74
2023/03/09 04:27:06;;;;;;;6.73;4.93;;;;;;;7.94;74.10;94171.56;5050425;28;20516;-73
2023/03/09 04:29:34;;;;;;;6.37;4.97;;;;;;;7.93;74.30;94172.53;5054686;28;20543;-73
2023/03/09 04:32:01;;;;;;;5.60;4.80;;;;;;;7.98;73.92;94168.56;5054857;28;20441;-74
2023/03/09 04:34:27;;;;;;;5.93;4.70;;;;;;;8.06;74.17;94163.47;5054769;28;20471;-74
2023/03/09 04:36:55;;;;;;;6.80;4.97;;;;;;;8.07;73.59;94159.09;5054842;28;20444;-73
2023/03/09 04:39:22;;;;;;;8.53;5.20;;;;;;;8.13;73.51;94161.19;5054890;28;20450;-73
2023/03/09 04:41:49;;;;;;;5.83;4.87;;;;;;;8.16;73.54;94160.91;5054445;28;20493;-73
2023/03/09 04:44:16;;;;;;;9.50;5.00;;;;;;;8.19;73.50;94157.22;5053880;28;20505;-74
2023/03/09 04:46:44;;;;;;;7.70;5.40;;;;;;;8.26;73.65;94155.72;5054946;28;20455;-75
2023/03/09 04:49:11;;;;;;;5.70;4.90;;;;;;;8.14;73.33;94144.56;5055055;28;20449;-74
2023/03/09 04:51:37;;;;;;;7.73;5.00;;;;;;;8.17;73.46;94151.28;5055086;28;20478;-74
2023/03/09 04:54:05;;;;;;;5.10;4.37;;;;;;;8.19;73.37;94142.34;5055017;28;20453;-73
2023/03/09 04:56:31;;;;;;;7.10;5.00;;;;;;;8.15;73.26;94140.16;5054834;28;20446;-74
2023/03/09 04:58:58;;;;;;;13.37;5.67;;;;;;;8.18;73.58;94145.09;5054822;28;20993;-74
2023/03/09 05:01:25;;;;;;;8.73;5.90;;;;;;;8.19;73.76;94146.75;5019910;28;20444;-74
2023/03/09 05:03:53;;;;;;;10.60;5.93;;;;;;;8.17;73.83;94149.50;5054680;28;20441;-72
2023/03/09 05:06:20;;;;;;;12.80;5.83;;;;;;;8.15;74.16;94143.59;5054738;28;20450;-74
2023/03/09 05:08:47;;;;;;;7.60;4.70;;;;;;;7.88;74.36;94128.53;5054696;28;20812;-74
2023/03/09 05:11:14;;;;;;;6.93;5.20;;;;;;;8.00;74.39;94131.84;5054137;28;20995;-74
2023/03/09 05:13:41;;;;;;;8.60;5.10;;;;;;;8.16;74.22;94152.25;5035811;28;20501;-74
2023/03/09 05:16:08;;;;;;;14.17;6.20;;;;;;;8.26;73.92;94153.09;5054475;28;21197;-73
2023/03/09 05:18:35;;;;;;;13.60;5.63;;;;;;;8.35;73.12;94150.53;5035764;28;20442;-75
2023/03/09 05:21:08;;;;;;;10.83;5.63;;;;;;;8.43;72.96;94143.81;5019155;28;20447;-75
2023/03/09 05:23:34;;;;;;;8.50;5.80;;;;;;;8.47;73.62;94156.47;5054257;28;20488;-72
2023/03/09 05:26:02;;;;;;;8.37;6.00;;;;;;;8.52;73.04;94149.03;5054152;28;20455;-72
2023/03/09 05:28:30;;;;;;;9.10;5.10;;;;;;;8.53;72.82;94148.09;5053965;28;20938;-73
2023/03/09 05:30:57;;;;;;;8.50;5.30;;;;;;;8.53;73.38;94144.63;5053686;28;20497;-72
2023/03/09 05:33:24;;;;;;;13.03;5.97;;;;;;;8.61;73.00;94160.47;5051603;28;20548;-73
2023/03/09 05:35:50;;;;;;;9.87;6.10;;;;;;;8.92;73.06;94155.94;5053639;28;20452;-73
2023/03/09 05:38:19;;;;;;;21.20;6.83;;;;;;;9.57;69.97;94149.94;5054355;28;20444;-73
2023/03/09 05:40:45;;;;;;;9.03;5.50;;;;;;;10.00;68.14;94166.06;5054430;28;20922;-73
2023/03/09 05:43:12;;;;;;;7.17;5.70;;;;;;;10.29;67.08;94169.41;5054106;28;20449;-72
2023/03/09 05:45:39;;;;;;;20.93;7.33;;;;;;;10.46;65.75;94175.66;5053811;28;20452;-73
2023/03/09 05:48:06;;;;;;;28.53;8.50;;;;;;;10.47;66.12;94166.81;5054035;28;20499;-73
2023/03/09 05:50:33;;;;;;;15.80;6.73;;;;;;;10.54;64.70;94160.84;5054074;28;20489;-73
2023/03/09 05:53:00;;;;;;;15.73;7.80;;;;;;;10.35;65.64;94166.19;5054049;28;20532;-72
2023/03/09 05:55:28;;;;;;;16.27;7.13;;;;;;;10.30;65.68;94168.41;5053627;28;20457;-73
2023/03/09 05:57:55;;;;;;;13.23;6.70;;;;;;;10.33;67.33;94175.16;5053909;28;20456;-74
2023/03/09 06:00:23;;;;;;;8.73;6.63;;;;;;;10.40;67.03;94171.81;5053263;28;20498;-73
2023/03/09 06:02:49;;;;;;;6.13;4.73;;;;;;;10.45;65.87;94185.34;5001868;28;20990;-73
2023/03/09 06:05:16;;;;;;;10.10;6.30;;;;;;;10.51;65.68;94184.75;5053679;28;20453;-73
2023/03/09 06:07:43;;;;;;;15.23;5.33;;;;;;;10.58;66.71;94184.97;5037145;28;20995;-73
2023/03/09 06:10:12;;;;;;;7.63;5.30;;;;;;;10.52;65.27;94183.75;5014938;28;20572;-75
2023/03/09 06:12:40;;;;;;;15.90;6.07;;;;;;;10.52;66.88;94201.31;5032506;28;20934;-74
2023/03/09 06:15:08;;;;;;;15.13;6.10;;;;;;;10.50;66.37;94206.69;5033292;28;20442;-74
2023/03/09 06:17:35;;;;;;;14.17;6.93;;;;;;;10.55;67.16;94199.22;5033131;28;20447;-73
2023/03/09 06:20:03;;;;;;;11.53;7.07;;;;;;;10.38;67.50;94199.97;5033217;28;20835;-74
2023/03/09 06:22:30;;;;;;;9.47;6.80;;;;;;;10.28;68.86;94201.84;5033944;28;20497;-74
2023/03/09 06:24:57;;;;;;;16.90;6.80;;;;;;;10.65;76.29;94208.81;5033053;28;20449;-75
2023/03/09 06:27:24;;;;;;;13.03;9.30;;;;;;;10.97;72.69;94206.53;5032738;28;20457;-75
2023/03/09 06:29:53;;;;;;;12.80;7.20;;;;;;;11.21;69.02;94194.59;5032733;28;20486;-74
2023/03/09 06:32:20;;;;;;;17.70;8.23;;;;;;;11.20;67.53;94199.03;5038294;28;20995;-74
2023/03/09 06:34:46;;;;;;;26.33;8.10;;;;;;;11.46;66.22;94196.47;5033874;28;20469;-74
2023/03/09 06:37:13;;;;;;;20.20;8.70;;;;;;;11.53;64.66;94200.13;5053011;28;20450;-73
2023/03/09 06:39:40;;;;;;;11.97;6.77;;;;;;;11.79;70.72;94185.22;5053024;28;20928;-74
2023/03/09 06:42:07;;;;;;;15.37;7.47;;;;;;;12.04;68.10;94195.91;5052950;28;20540;-74
2023/03/09 06:44:34;;;;;;;14.23;6.30;;;;;;;12.23;61.94;94205.38;5041041;28;20447;-73
2023/03/09 06:47:02;;;;;;;12.93;6.50;;;;;;;12.28;59.80;94190.75;5050437;28;20442;-73
2023/03/09 06:49:29;;;;;;;9.77;6.43;;;;;;;12.44;61.39;94197.09;5043515;28;20464;-74
2023/03/09 06:51:57;;;;;;;13.57;8.87;;;;;;;12.56;59.54;94198.44;5051351;28;20445;-73
2023/03/09 06:54:24;;;;;;;14.80;8.97;;;;;;;12.51;57.59;94182.31;5051871;28;20528;-73
2023/03/09 06:56:52;;;;;;;9.13;6.03;;;;;;;12.18;58.51;94176.91;5051935;28;20448;-72
2023/03/09 06:59:18;;;;;;;23.73;7.80;;;;;;;12.44;62.55;94178.66;5051861;28;20446;-72
2023/03/09 07:01:45;;;;;;;14.43;8.70;;;;;;;12.07;60.33;94161.41;5051505;28;20531;-73
2023/03/09 07:04:13;;;;;;;11.30;6.63;;;;;;;12.02;61.16;94159.25;5051616;28;20450;-72
2023/03/09 07:06:40;;;;;;;8.00;6.80;;;;;;;12.32;61.75;94172.84;5051267;28;20455;-72
2023/03/09 07:09:08;;;;;;;16.00;6.80;;;;;;;12.55;62.84;94167.84;5051929;28;20453;-73
2023/03/09 07:11:34;;;;;;;13.23;6.90;;;;;;;12.82;60.99;94162.31;5051195;28;20539;-72
2023/03/09 07:14:01;;;;;;;12.63;7.40;;;;;;;12.91;59.79;94158.72;5051360;28;20453;-73
2023/03/09 07:16:30;;;;;;;11.33;5.77;;;;;;;12.86;58.77;94166.28;5051339;28;20449;-73
2023/03/09 07:18:58;;;;;;;10.17;7.40;;;;;;;12.84;59.16;94165.63;5051576;28;20442;-71
2023/03/09 07:21:26;;;;;;;9.17;8.27;;;;;;;12.67;59.82;94182.34;5050856;28;20441;-74
2023/03/09 07:23:52;;;;;;;8.20;6.50;;;;;;;12.66;60.55;94178.06;5032833;28;20853;-74
2023/03/09 07:26:20;;;;;;;8.60;6.43;;;;;;;12.50;60.56;94175.41;5052229;28;20515;-74
2023/03/09 07:28:47;;;;;;;8.00;6.43;;;;;;;12.66;58.90;94167.53;5016773;28;20445;-74
2023/03/09 07:31:14;;;;;;;10.10;5.67;;;;;;;12.61;58.49;94169.84;5051751;28;20483;-74
2023/03/09 07:33:41;;;;;;;6.20;4.40;;;;;;;12.54;57.17;94163.56;5049927;28;20446;-73
2023/03/09 07:36:09;;;;;;;8.80;4.90;;;;;;;12.37;56.76;94160.03;5050091;28;20933;-75
2023/03/09 07:38:37;;;;;;;12.00;5.13;;;;;;;12.31;57.24;94172.03;5052218;28;20838;-74
2023/03/09 07:41:05;;;;;;;7.93;4.80;;;;;;;12.26;56.67;94179.56;5050701;28;20456;-74
2023/03/09 07:43:32;;;;;;;6.67;4.73;;;;;;;12.28;57.08;94174.97;5051559;28;20482;-74
2023/03/09 07:45:59;;;;;;;8.27;4.37;;;;;;;12.28;57.49;94177.59;5051307;28;20452;-74
2023/03/09 07:48:25;;;;;;;6.77;4.50;;;;;;;12.34;57.12;94176.16;5052076;28;20445;-74
2023/03/09 07:50:59;;;;;;;9.63;4.00;;;;;;;12.49;56.50;94182.47;5051014;28;20485;-74
2023/03/09 07:53:25;;;;;;;9.57;3.83;;;;;;;12.58;57.05;94173.59;5051719;28;20446;-74
2023/03/09 07:55:57;;;;;;;5.07;4.57;;;;;;;12.71;56.85;94171.34;5051448;28;20442;-73
2023/03/09 07:58:24;;;;;;;7.63;4.10;;;;;;;12.89;56.21;94181.75;5052999;28;20568;-74
2023/03/09 08:00:50;;;;;;;5.50;4.17;;;;;;;13.00;57.31;94185.88;5054426;28;20955;-74
2023/03/09 08:03:17;;;;;;;5.57;4.67;;;;;;;12.83;56.79;94174.50;5055026;28;20845;-74
2023/03/09 08:05:44;;;;;;;6.03;4.23;;;;;;;12.78;56.26;94179.44;5054614;28;20774;-72
2023/03/09 08:08:12;;;;;;;8.47;6.33;;;;;;;12.79;56.37;94185.53;5055587;28;20470;-73
2023/03/09 08:10:39;;;;;;;7.40;5.47;;;;;;;12.80;55.34;94174.84;5055733;28;20588;-74
2023/03/09 08:13:10;;;;;;;5.47;4.43;;;;;;;13.04;55.56;94174.06;5055509;28;20454;-74
2023/03/09 08:15:37;;;;;;;6.03;5.30;;;;;;;13.23;55.30;94172.94;5055954;28;20443;-74
2023/03/09 08:18:04;;;;;;;9.10;5.33;;;;;;;13.30;55.08;94184.50;5020587;28;20445;-74
2023/03/09 08:20:31;;;;;;;11.10;6.53;;;;;;;13.42;54.96;94182.34;5020140;28;20443;-74
2023/03/09 08:22:57;;;;;;;7.83;5.73;;;;;;;13.70;54.24;94193.38;5055270;28;20639;-72
2023/03/09 08:25:25;;;;;;;9.00;5.47;;;;;;;13.68;53.02;94198.81;5055104;28;20928;-73
2023/03/09 08:27:53;;;;;;;7.03;5.10;;;;;;;13.59;54.40;94195.38;5054930;28;20933;-74
2023/03/09 08:30:22;;;;;;;5.97;5.00;;;;;;;13.23;54.54;94186.13;5054793;28;20446;-75
2023/03/09 08:32:49;;;;;;;5.87;5.27;;;;;;;13.28;54.98;94178.53;5054436;28;20454;-74
2023/03/09 08:35:16;;;;;;;9.50;4.67;;;;;;;13.19;56.41;94182.16;5054787;28;20501;-74
2023/03/09 08:37:43;;;;;;;8.50;4.50;;;;;;;13.48;56.28;94181.69;5055033;28;20431;-74
2023/03/09 08:40:11;;;;;;;9.90;4.70;;;;;;;13.53;54.24;94177.56;5054911;28;20447;-74
2023/03/09 08:42:38;;;;;;;14.50;13.00;;;;;;;13.56;54.05;94171.94;5019387;28;20568;-74
2023/03/09 08:45:07;;;;;;;9.17;4.80;;;;;;;13.70;53.78;94172.28;5054732;28;20938;-74
2023/03/09 08:47:35;;;;;;;5.50;4.70;;;;;;;13.27;54.27;94166.34;5019163;28;21004;-74
2023/03/09 08:50:04;;;;;;;6.13;4.20;;;;;;;13.29;54.63;94162.56;5054520;28;20466;-74
2023/03/09 08:52:34;;;;;;;6.67;3.73;;;;;;;13.36;54.73;94165.38;5054678;28;20506;-74
2023/03/09 08:55:01;;;;;;;5.83;4.27;;;;;;;13.59;54.40;94162.91;5054774;28;20459;-73
2023/03/09 08:57:28;;;;;;;8.23;4.63;;;;;;;13.73;53.90;94170.13;5054307;28;20873;-74
2023/03/09 08:59:55;;;;;;;7.00;4.80;;;;;;;13.59;54.19;94158.47;5054373;28;20454;-74
2023/03/09 09:02:22;;;;;;;6.13;4.43;;;;;;;13.39;54.71;94157.16;5054217;28;20450;-74
2023/03/09 09:04:51;;;;;;;5.93;3.43;;;;;;;13.49;54.84;94157.78;5019123;28;20463;-74
2023/03/09 09:07:20;;;;;;;5.23;4.20;;;;;;;13.37;54.70;94145.13;5018909;28;20672;-74
2023/03/09 09:09:47;;;;;;;10.67;4.83;;;;;;;13.46;55.13;94137.03;5053748;28;20476;-73
2023/03/09 09:12:14;;;;;;;4.77;4.27;;;;;;;13.58;54.68;94134.88;5054418;28;20492;-74
2023/03/09 09:14:42;;;;;;;4.53;4.13;;;;;;;13.66;54.59;94134.06;5054168;28;20456;-74
2023/03/09 09:17:11;;;;;;;4.73;3.90;;;;;;;13.67;54.36;94127.81;5053807;28;20439;-74
2023/03/09 09:19:39;;;;;;;7.07;3.63;;;;;;;13.55;54.79;94120.22;5053877;28;20849;-75
2023/03/09 09:22:08;;;;;;;8.27;4.80;;;;;;;13.54;55.56;94115.13;5053854;28;20457;-74
2023/03/09 09:24:37;;;;;;;6.97;3.60;;;;;;;13.32;55.87;94127.19;5053828;28;20460;-72
2023/03/09 09:27:05;;;;;;;5.17;4.20;;;;;;;13.39;55.73;94127.34;5054458;28;20454;-73
2023/03/09 09:29:32;;;;;;;4.77;4.27;;;;;;;13.42;56.17;94121.72;5053603;28;21021;-74
2023/03/09 09:31:59;;;;;;;5.20;4.70;;;;;;;13.47;56.20;94106.25;5053743;28;20475;-74
2023/03/09 09:34:30;;;;;;;5.90;4.80;;;;;;;13.55;56.09;94112.31;5053687;28;20495;-74
2023/03/09 09:36:57;;;;;;;6.30;4.57;;;;;;;13.61;56.06;94108.22;5053576;28;20444;-74
2023/03/09 09:39:25;;;;;;;9.63;4.70;;;;;;;13.74;55.56;94107.69;5053745;28;20458;-74
2023/03/09 09:41:55;;;;;;;6.07;4.17;;;;;;;13.62;56.08;94094.03;5034731;28;21010;-74
2023/03/09 09:44:25;;;;;;;9.30;4.50;;;;;;;13.76;55.38;94095.16;5054071;28;20443;-74
2023/03/09 09:46:56;;;;;;;5.60;3.90;;;;;;;13.84;55.51;94093.28;5053711;28;20451;-74
2023/03/09 09:49:26;;;;;;;7.27;4.07;;;;;;;14.05;55.91;94084.00;5053790;28;20796;-74
2023/03/09 09:52:19;;;;;;;5.40;3.43;;;;;;;14.37;54.30;94083.84;5053307;28;20484;-74
2023/03/09 09:54:54;;;;;;;4.80;3.93;;;;;;;14.67;54.13;94092.78;5053896;28;20453;-74
2023/03/09 09:57:26;;;;;;;5.63;3.83;;;;;;;14.87;53.21;94088.72;5053610;28;20452;-74
2023/03/09 10:00:02;;;;;;;6.90;4.43;;;;;;;15.09;53.34;94073.03;5053262;28;20504;-73
2023/03/09 10:02:41;;;;;;;9.13;4.90;;;;;;;15.29;52.38;94060.94;5053533;28;20532;-74
2023/03/09 10:05:18;;;;;;;10.13;4.27;;;;;;;15.31;51.28;94074.00;5053157;28;20450;-74
2023/03/09 10:07:45;;;;;;;7.53;4.77;;;;;;;15.35;51.28;94070.84;5053099;28;20509;-74
2023/03/09 10:10:18;;;;;;;6.57;4.10;;;;;;;15.20;51.19;94064.69;5053196;28;20537;-73
2023/03/09 10:12:46;;;;;;;6.80;4.83;;;;;;;15.24;51.77;94063.31;5053140;28;20477;-75
2023/03/09 10:15:19;;;;;;;9.30;4.83;;;;;;;15.41;50.59;94050.78;5052756;28;20437;-74
2023/03/09 10:17:50;;;;;;;4.13;3.60;;;;;;;15.57;49.45;94044.50;5017962;28;20445;-74
2023/03/09 10:20:23;;;;;;;4.23;3.83;;;;;;;15.66;48.42;94054.03;5052707;28;20450;-73
2023/03/09 10:22:54;;;;;;;5.37;3.87;;;;;;;15.66;49.69;94041.66;5052551;28;20902;-74
2023/03/09 10:25:26;;;;;;;3.03;2.73;;;;;;;15.67;50.33;94031.88;5052615;28;20951;-74
2023/03/09 10:27:57;;;;;;;3.47;2.87;;;;;;;15.68;49.08;94022.94;5052822;28;20495;-73
2023/03/09 10:30:38;;;;;;;5.23;2.93;;;;;;;15.74;50.02;94023.03;5052480;28;20501;-74
2023/03/09 10:33:12;;;;;;;6.53;3.37;;;;;;;15.75;50.51;94026.50;5052549;28;20503;-73
2023/03/09 10:35:45;;;;;;;3.97;2.97;;;;;;;15.67;50.21;94013.38;5052353;28;20474;-73
2023/03/09 10:38:14;;;;;;;4.93;3.37;;;;;;;15.70;50.89;94011.19;5052522;28;20478;-73
2023/03/09 10:40:48;;;;;;;5.43;3.50;;;;;;;15.78;50.26;94004.97;5053061;28;20533;-74
2023/03/09 10:43:21;;;;;;;5.07;2.93;;;;;;;15.88;49.80;93991.44;5052513;28;20493;-73
2023/03/09 10:45:48;;;;;;;8.00;3.70;;;;;;;16.04;50.06;93999.19;5052246;28;20500;-73
2023/03/09 10:48:21;;;;;;;3.77;2.70;;;;;;;16.08;49.20;93989.88;5034162;28;20445;-74
2023/03/09 10:50:57;;;;;;;3.37;3.07;;;;;;;16.26;49.66;93978.88;5033399;28;20439;-72
2023/03/09 10:53:28;;;;;;;5.87;3.70;;;;;;;16.46;49.81;93971.97;5052660;28;20467;-73
2023/03/09 10:56:03;;;;;;;3.23;2.90;;;;;;;16.64;49.63;93966.22;5052434;28;20861;-73
2023/03/09 10:58:30;;;;;;;3.00;2.70;;;;;;;16.81;48.89;93970.31;5052329;28;20505;-74
2023/03/09 11:01:01;;;;;;;5.80;2.80;;;;;;;16.95;49.05;93957.97;5052249;28;20503;-72
2023/03/09 11:03:33;;;;;;;3.00;2.73;;;;;;;17.01;47.08;93954.56;5051915;28;20464;-74
2023/03/09 11:06:11;;;;;;;6.27;2.90;;;;;;;17.12;48.06;93945.28;5052207;28;20503;-74
2023/03/09 11:08:38;;;;;;;6.07;3.00;;;;;;;17.24;47.71;93952.50;5052412;28;20838;-74
2023/03/09 11:11:14;;;;;;;3.90;2.70;;;;;;;17.34;46.64;93939.69;5052014;28;20501;-74
2023/03/09 11:13:44;;;;;;;2.47;2.27;;;;;;;17.39;46.64;93935.66;5051851;28;20482;-73
2023/03/09 11:16:15;;;;;;;10.53;3.00;;;;;;;17.62;47.80;93936.19;5052195;28;20451;-73
2023/03/09 11:18:43;;;;;;;9.93;3.30;;;;;;;17.85;46.43;93935.91;5052095;28;20505;-74
2023/03/09 11:21:10;;;;;;;2.63;2.20;;;;;;;17.94;46.74;93914.34;5033813;28;20465;-74
2023/03/09 11:23:42;;;;;;;3.90;2.30;;;;;;;18.08;45.61;93911.72;5052369;28;20454;-74
2023/03/09 11:26:17;;;;;;;9.63;2.57;;;;;;;18.51;46.00;93912.22;5052255;28;20447;-73
2023/03/09 11:28:54;;;;;;;2.90;1.80;;;;;;;18.63;45.42;93915.13;5052157;28;20581;-73
2023/03/09 11:31:25;;;;;;;2.23;2.03;;;;;;;18.68;45.32;93910.03;5052489;28;20515;-74
2023/03/09 11:33:57;;;;;;;3.63;1.90;;;;;;;18.69;44.98;93899.19;5056421;28;20477;-74
2023/03/09 11:36:27;;;;;;;2.63;2.30;;;;;;;18.71;44.40;93898.97;5056559;28;20450;-73
2023/03/09 11:38:55;;;;;;;2.40;2.20;;;;;;;18.77;44.44;93890.19;5056514;28;20521;-74
2023/03/09 11:41:29;;;;;;;3.93;1.80;;;;;;;18.79;43.67;93891.63;5056017;28;20474;-75
2023/03/09 11:44:00;;;;;;;2.30;2.10;;;;;;;18.86;43.93;93888.97;5056365;28;20438;-74